sensor_id;sensor_type;location;lat;lon;timestamp;temperature;humidity
7512;DHT22;9999;48.780;9.146;2022-10-13T00:00:29;11.60;99.90
7512;DHT22;9999;48.780;9.146;2022-10-13T00:02:59;11.70;99.90
7512;DHT22;9999;48.780;9.146;2022-10-13T00:05:27;11.60;99.90
7512;DHT22;9999;48.780;9.146;2022-10-13T00:07:54;11.50;99.90
7512;DHT22;9999;48.780;9.146;2022-10-13T00:10:21;11.60;99.90
7512;DHT22;9999;48.780;9.146;2022-10-13T00:12:48;11.50;99.90
7512;DHT22;9999;48.780;9.146;2022-10-13T00:15:15;11.60;99.90
7512;DHT22;9999;48.780;9.146;2022-10-13T00:17:42;11.60;99.90
7512;DHT22;9999;48.780;9.146;2022-10-13T00:20:11;11.60;99.90
7512;DHT22;9999;48.780;9.146;2022-10-13T00:22:37;11.60;99.90
7512;DHT22;9999;48.780;9.146;2022-10-13T00:25:05;11.60;99.90
7512;DHT22;9999;48.780;9.146;2022-10-13T00:27:32;11.60;99.90
7512;DHT22;9999;48.780;9.146;2022-10-13T00:29:59;11.70;99.90
7512;DHT22;9999;48.780;9.146;2022-10-13T00:32:26;11.80;99.90
7512;DHT22;9999;48.780;9.146;2022-10-13T00:34:53;11.70;99.90
7512;DHT22;9999;48.780;9.146;2022-10-13T00:37:21;11.70;99.90
7512;DHT22;9999;48.780;9.146;2022-10-13T00:39:48;11.70;99.90
7512;DHT22;9999;48.780;9.146;2022-10-13T00:42:16;11.80;99.90
7512;DHT22;9999;48.780;9.146;2022-10-13T00:45:12;11.80;99.90
7512;DHT22;9999;48.780;9.146;2022-10-13T00:47:48;11.80;99.90
7512;DHT22;9999;48.780;9.146;2022-10-13T00:50:18;11.90;99.90
7512;DHT22;9999;48.780;9.146;2022-10-13T00:52:53;11.80;99.90
7512;DHT22;9999;48.780;9.146;2022-10-13T00:55:25;11.90;99.90
7512;DHT22;9999;48.780;9.146;2022-10-13T00:57:53;11.90;99.90
7512;DHT22;9999;48.780;9.146;2022-10-13T01:00:28;11.90;99.90
7512;DHT22;9999;48.780;9.146;2022-10-13T01:02:56;11.90;99.90
7512;DHT22;9999;48.780;9.146;2022-10-13T01:05:23;11.90;99.90
7512;DHT22;9999;48.780;9.146;2022-10-13T01:07:55;11.80;99.90
7512;DHT22;9999;48.780;9.146;2022-10-13T01:10:30;11.90;99.90
7512;DHT22;9999;48.780;9.146;2022-10-13T01:13:03;11.90;99.90
7512;DHT22;9999;48.780;9.146;2022-10-13T01:15:37;11.80;99.90
7512;DHT22;9999;48.780;9.146;2022-10-13T01:18:12;11.90;99.90
7512;DHT22;9999;48.780;9.146;2022-10-13T01:21:05;11.90;99.90
7512;DHT22;9999;48.780;9.146;2022-10-13T01:24:01;11.90;99.90
7512;DHT22;9999;48.780;9.146;2022-10-13T01:26:56;12.00;99.90
7512;DHT22;9999;48.780;9.146;2022-10-13T01:30:00;12.00;99.90
7512;DHT22;9999;48.780;9.146;2022-10-13T01:32:30;12.00;99.90
7512;DHT22;9999;48.780;9.146;2022-10-13T01:35:06;11.90;99.90
7512;DHT22;9999;48.780;9.146;2022-10-13T01:37:39;11.80;99.90
7512;DHT22;9999;48.780;9.146;2022-10-13T01:40:14;11.70;99.90
7512;DHT22;9999;48.780;9.146;2022-10-13T01:42:49;11.70;99.90
7512;DHT22;9999;48.780;9.146;2022-10-13T01:45:24;11.70;99.90
7512;DHT22;9999;48.780;9.146;2022-10-13T01:47:55;11.80;99.90
7512;DHT22;9999;48.780;9.146;2022-10-13T01:50:24;11.80;99.90
7512;DHT22;9999;48.780;9.146;2022-10-13T01:52:52;11.80;99.90
7512;DHT22;9999;48.780;9.146;2022-10-13T01:55:18;11.80;99.90
7512;DHT22;9999;48.780;9.146;2022-10-13T01:57:45;11.70;99.90
7512;DHT22;9999;48.780;9.146;2022-10-13T02:00:14;11.60;99.90
7512;DHT22;9999;48.780;9.146;2022-10-13T02:02:50;11.60;99.90
7512;DHT22;9999;48.780;9.146;2022-10-13T02:05:23;11.60;99.90
7512;DHT22;9999;48.780;9.146;2022-10-13T02:07:55;11.60;99.90
7512;DHT22;9999;48.780;9.146;2022-10-13T02:10:29;11.60;99.90
7512;DHT22;9999;48.780;9.146;2022-10-13T02:12:58;11.60;99.90
7512;DHT22;9999;48.780;9.146;2022-10-13T02:15:29;11.60;99.90
7512;DHT22;9999;48.780;9.146;2022-10-13T02:18:01;11.60;99.90
7512;DHT22;9999;48.780;9.146;2022-10-13T02:20:29;11.60;99.90
7512;DHT22;9999;48.780;9.146;2022-10-13T02:23:01;11.50;99.90
7512;DHT22;9999;48.780;9.146;2022-10-13T02:25:30;11.60;99.90
7512;DHT22;9999;48.780;9.146;2022-10-13T02:27:58;11.60;99.90
7512;DHT22;9999;48.780;9.146;2022-10-13T02:30:30;11.60;99.90
7512;DHT22;9999;48.780;9.146;2022-10-13T02:32:58;11.70;99.90
7512;DHT22;9999;48.780;9.146;2022-10-13T02:35:26;11.70;99.90
7512;DHT22;9999;48.780;9.146;2022-10-13T02:37:56;11.70;99.90
7512;DHT22;9999;48.780;9.146;2022-10-13T02:40:23;11.70;99.90
7512;DHT22;9999;48.780;9.146;2022-10-13T02:42:50;11.70;99.90
7512;DHT22;9999;48.780;9.146;2022-10-13T02:45:16;11.80;99.90
7512;DHT22;9999;48.780;9.146;2022-10-13T02:47:43;11.80;99.90
7512;DHT22;9999;48.780;9.146;2022-10-13T02:50:10;11.80;99.90
7512;DHT22;9999;48.780;9.146;2022-10-13T02:52:39;11.80;99.90
7512;DHT22;9999;48.780;9.146;2022-10-13T02:55:07;11.80;99.90
7512;DHT22;9999;48.780;9.146;2022-10-13T02:57:34;11.80;99.90
7512;DHT22;9999;48.780;9.146;2022-10-13T03:00:01;11.80;99.90
7512;DHT22;9999;48.780;9.146;2022-10-13T03:02:30;11.80;99.90
7512;DHT22;9999;48.780;9.146;2022-10-13T03:04:57;11.90;99.90
7512;DHT22;9999;48.780;9.146;2022-10-13T03:07:23;11.80;99.90
7512;DHT22;9999;48.780;9.146;2022-10-13T03:09:51;11.80;99.90
7512;DHT22;9999;48.780;9.146;2022-10-13T03:12:18;11.80;99.90
7512;DHT22;9999;48.780;9.146;2022-10-13T03:14:45;11.90;99.90
7512;DHT22;9999;48.780;9.146;2022-10-13T03:17:12;11.90;99.90
7512;DHT22;9999;48.780;9.146;2022-10-13T03:19:39;11.90;99.90
7512;DHT22;9999;48.780;9.146;2022-10-13T03:22:08;11.90;99.90
7512;DHT22;9999;48.780;9.146;2022-10-13T03:24:39;11.80;99.90
7512;DHT22;9999;48.780;9.146;2022-10-13T03:27:07;11.80;99.90
7512;DHT22;9999;48.780;9.146;2022-10-13T03:29:34;11.90;99.90
7512;DHT22;9999;48.780;9.146;2022-10-13T03:32:00;11.90;99.90
7512;DHT22;9999;48.780;9.146;2022-10-13T03:34:27;11.90;99.90
7512;DHT22;9999;48.780;9.146;2022-10-13T03:36:55;11.90;99.90
7512;DHT22;9999;48.780;9.146;2022-10-13T03:39:22;11.90;99.90
7512;DHT22;9999;48.780;9.146;2022-10-13T03:41:49;11.90;99.90
7512;DHT22;9999;48.780;9.146;2022-10-13T03:44:17;11.90;99.90
7512;DHT22;9999;48.780;9.146;2022-10-13T03:46:44;12.00;99.90
7512;DHT22;9999;48.780;9.146;2022-10-13T03:49:11;12.00;99.90
7512;DHT22;9999;48.780;9.146;2022-10-13T03:51:38;12.00;99.90
7512;DHT22;9999;48.780;9.146;2022-10-13T03:54:05;12.00;99.90
7512;DHT22;9999;48.780;9.146;2022-10-13T03:56:31;12.00;99.90
7512;DHT22;9999;48.780;9.146;2022-10-13T03:58:59;12.10;99.90
7512;DHT22;9999;48.780;9.146;2022-10-13T04:01:28;12.10;99.90
7512;DHT22;9999;48.780;9.146;2022-10-13T04:03:56;12.00;99.90
7512;DHT22;9999;48.780;9.146;2022-10-13T04:06:24;12.10;99.90
7512;DHT22;9999;48.780;9.146;2022-10-13T04:08:52;12.10;99.90
7512;DHT22;9999;48.780;9.146;2022-10-13T04:11:19;12.00;99.90
7512;DHT22;9999;48.780;9.146;2022-10-13T04:13:50;12.10;99.90
7512;DHT22;9999;48.780;9.146;2022-10-13T04:16:20;12.20;99.90
7512;DHT22;9999;48.780;9.146;2022-10-13T04:18:52;12.20;99.90
7512;DHT22;9999;48.780;9.146;2022-10-13T04:21:19;12.20;99.90
7512;DHT22;9999;48.780;9.146;2022-10-13T04:23:46;12.20;99.90
7512;DHT22;9999;48.780;9.146;2022-10-13T04:26:16;12.20;99.90
7512;DHT22;9999;48.780;9.146;2022-10-13T04:28:44;12.20;99.90
7512;DHT22;9999;48.780;9.146;2022-10-13T04:31:11;12.20;99.90
7512;DHT22;9999;48.780;9.146;2022-10-13T04:33:38;12.10;99.90
7512;DHT22;9999;48.780;9.146;2022-10-13T04:36:09;12.10;99.90
7512;DHT22;9999;48.780;9.146;2022-10-13T04:38:37;12.10;99.90
7512;DHT22;9999;48.780;9.146;2022-10-13T04:41:05;12.10;99.90
7512;DHT22;9999;48.780;9.146;2022-10-13T04:43:32;12.10;99.90
7512;DHT22;9999;48.780;9.146;2022-10-13T04:46:00;12.20;99.90
7512;DHT22;9999;48.780;9.146;2022-10-13T04:48:27;12.20;99.90
7512;DHT22;9999;48.780;9.146;2022-10-13T04:50:58;12.20;99.90
7512;DHT22;9999;48.780;9.146;2022-10-13T04:53:26;12.10;99.90
7512;DHT22;9999;48.780;9.146;2022-10-13T04:55:54;12.20;99.90
7512;DHT22;9999;48.780;9.146;2022-10-13T04:58:21;12.20;99.90
7512;DHT22;9999;48.780;9.146;2022-10-13T05:00:48;12.20;99.90
7512;DHT22;9999;48.780;9.146;2022-10-13T05:03:15;12.10;99.90
7512;DHT22;9999;48.780;9.146;2022-10-13T05:05:42;12.10;99.90
7512;DHT22;9999;48.780;9.146;2022-10-13T05:08:09;12.10;99.90
7512;DHT22;9999;48.780;9.146;2022-10-13T05:10:37;12.10;99.90
7512;DHT22;9999;48.780;9.146;2022-10-13T05:13:04;12.00;99.90
7512;DHT22;9999;48.780;9.146;2022-10-13T05:15:31;12.00;99.90
7512;DHT22;9999;48.780;9.146;2022-10-13T05:17:58;12.00;99.90
7512;DHT22;9999;48.780;9.146;2022-10-13T05:20:25;12.00;99.90
7512;DHT22;9999;48.780;9.146;2022-10-13T05:22:52;12.00;99.90
7512;DHT22;9999;48.780;9.146;2022-10-13T05:25:18;11.90;99.90
7512;DHT22;9999;48.780;9.146;2022-10-13T05:27:47;11.90;99.90
7512;DHT22;9999;48.780;9.146;2022-10-13T05:30:13;11.80;99.90
7512;DHT22;9999;48.780;9.146;2022-10-13T05:32:40;11.80;99.90
7512;DHT22;9999;48.780;9.146;2022-10-13T05:35:08;11.80;99.90
7512;DHT22;9999;48.780;9.146;2022-10-13T05:37:39;11.90;99.90
7512;DHT22;9999;48.780;9.146;2022-10-13T05:40:07;11.90;99.90
7512;DHT22;9999;48.780;9.146;2022-10-13T05:42:34;11.90;99.90
7512;DHT22;9999;48.780;9.146;2022-10-13T05:45:04;12.00;99.90
7512;DHT22;9999;48.780;9.146;2022-10-13T05:47:33;11.80;99.90
7512;DHT22;9999;48.780;9.146;2022-10-13T05:50:00;11.80;99.90
7512;DHT22;9999;48.780;9.146;2022-10-13T05:52:28;11.70;99.90
7512;DHT22;9999;48.780;9.146;2022-10-13T05:55:00;11.70;99.90
7512;DHT22;9999;48.780;9.146;2022-10-13T05:57:32;11.80;99.90
7512;DHT22;9999;48.780;9.146;2022-10-13T06:00:07;11.80;99.90
7512;DHT22;9999;48.780;9.146;2022-10-13T06:02:44;11.80;99.90
7512;DHT22;9999;48.780;9.146;2022-10-13T06:05:13;11.90;99.90
7512;DHT22;9999;48.780;9.146;2022-10-13T06:07:42;11.90;99.90
7512;DHT22;9999;48.780;9.146;2022-10-13T06:10:11;11.90;99.90
7512;DHT22;9999;48.780;9.146;2022-10-13T06:12:38;11.90;99.90
7512;DHT22;9999;48.780;9.146;2022-10-13T06:15:07;11.80;99.90
7512;DHT22;9999;48.780;9.146;2022-10-13T06:17:35;11.80;99.90
7512;DHT22;9999;48.780;9.146;2022-10-13T06:20:02;11.90;99.90
7512;DHT22;9999;48.780;9.146;2022-10-13T06:22:30;12.00;99.90
7512;DHT22;9999;48.780;9.146;2022-10-13T06:24:57;12.00;99.90
7512;DHT22;9999;48.780;9.146;2022-10-13T06:27:24;12.10;99.90
7512;DHT22;9999;48.780;9.146;2022-10-13T06:29:52;12.20;99.90
7512;DHT22;9999;48.780;9.146;2022-10-13T06:32:20;12.20;99.90
7512;DHT22;9999;48.780;9.146;2022-10-13T06:34:47;12.10;99.90
7512;DHT22;9999;48.780;9.146;2022-10-13T06:37:14;12.10;99.90
7512;DHT22;9999;48.780;9.146;2022-10-13T06:39:41;12.10;99.90
7512;DHT22;9999;48.780;9.146;2022-10-13T06:42:08;12.10;99.90
7512;DHT22;9999;48.780;9.146;2022-10-13T06:44:37;12.00;99.90
7512;DHT22;9999;48.780;9.146;2022-10-13T06:47:04;12.00;99.90
7512;DHT22;9999;48.780;9.146;2022-10-13T06:49:32;11.90;99.90
7512;DHT22;9999;48.780;9.146;2022-10-13T06:51:59;12.00;99.90
7512;DHT22;9999;48.780;9.146;2022-10-13T06:54:26;12.00;99.90
7512;DHT22;9999;48.780;9.146;2022-10-13T06:56:53;12.10;99.90
7512;DHT22;9999;48.780;9.146;2022-10-13T06:59:20;12.20;99.90
7512;DHT22;9999;48.780;9.146;2022-10-13T07:01:47;12.20;99.90
7512;DHT22;9999;48.780;9.146;2022-10-13T07:04:15;12.30;99.90
7512;DHT22;9999;48.780;9.146;2022-10-13T07:06:43;12.20;99.90
7512;DHT22;9999;48.780;9.146;2022-10-13T07:09:10;12.20;99.90
7512;DHT22;9999;48.780;9.146;2022-10-13T07:11:37;12.20;99.90
7512;DHT22;9999;48.780;9.146;2022-10-13T07:14:04;12.20;99.90
7512;DHT22;9999;48.780;9.146;2022-10-13T07:16:31;12.20;99.90
7512;DHT22;9999;48.780;9.146;2022-10-13T07:18:58;12.30;99.90
7512;DHT22;9999;48.780;9.146;2022-10-13T07:21:25;12.20;99.90
7512;DHT22;9999;48.780;9.146;2022-10-13T07:23:53;12.20;99.90
7512;DHT22;9999;48.780;9.146;2022-10-13T07:26:20;12.20;99.90
7512;DHT22;9999;48.780;9.146;2022-10-13T07:28:47;12.30;99.90
7512;DHT22;9999;48.780;9.146;2022-10-13T07:31:16;12.40;99.90
7512;DHT22;9999;48.780;9.146;2022-10-13T07:33:45;12.50;99.90
7512;DHT22;9999;48.780;9.146;2022-10-13T07:36:15;12.60;99.90
7512;DHT22;9999;48.780;9.146;2022-10-13T07:38:43;12.50;99.90
7512;DHT22;9999;48.780;9.146;2022-10-13T07:41:12;12.60;99.90
7512;DHT22;9999;48.780;9.146;2022-10-13T07:43:40;12.70;99.90
7512;DHT22;9999;48.780;9.146;2022-10-13T07:46:07;12.70;99.90
7512;DHT22;9999;48.780;9.146;2022-10-13T07:48:35;12.70;99.90
7512;DHT22;9999;48.780;9.146;2022-10-13T07:51:03;12.80;99.90
7512;DHT22;9999;48.780;9.146;2022-10-13T07:53:31;12.80;99.90
7512;DHT22;9999;48.780;9.146;2022-10-13T07:56:00;12.90;99.90
7512;DHT22;9999;48.780;9.146;2022-10-13T07:58:28;12.80;99.90
7512;DHT22;9999;48.780;9.146;2022-10-13T08:00:55;12.90;99.90
7512;DHT22;9999;48.780;9.146;2022-10-13T08:03:24;12.80;99.90
7512;DHT22;9999;48.780;9.146;2022-10-13T08:05:51;12.80;99.90
7512;DHT22;9999;48.780;9.146;2022-10-13T08:08:18;12.90;99.90
7512;DHT22;9999;48.780;9.146;2022-10-13T08:10:45;12.90;99.90
7512;DHT22;9999;48.780;9.146;2022-10-13T08:13:12;13.00;99.90
7512;DHT22;9999;48.780;9.146;2022-10-13T08:15:41;13.00;99.90
7512;DHT22;9999;48.780;9.146;2022-10-13T08:18:08;13.10;99.90
7512;DHT22;9999;48.780;9.146;2022-10-13T08:20:37;13.10;99.90
7512;DHT22;9999;48.780;9.146;2022-10-13T08:23:04;13.10;99.90
7512;DHT22;9999;48.780;9.146;2022-10-13T08:25:35;13.10;99.90
7512;DHT22;9999;48.780;9.146;2022-10-13T08:28:03;13.10;99.90
7512;DHT22;9999;48.780;9.146;2022-10-13T08:30:30;13.20;99.90
7512;DHT22;9999;48.780;9.146;2022-10-13T08:32:58;13.30;99.90
7512;DHT22;9999;48.780;9.146;2022-10-13T08:35:25;13.20;99.90
7512;DHT22;9999;48.780;9.146;2022-10-13T08:37:52;13.30;99.90
7512;DHT22;9999;48.780;9.146;2022-10-13T08:40:20;13.40;99.90
7512;DHT22;9999;48.780;9.146;2022-10-13T08:42:48;13.50;99.90
7512;DHT22;9999;48.780;9.146;2022-10-13T08:45:19;13.50;99.90
7512;DHT22;9999;48.780;9.146;2022-10-13T08:47:50;13.60;99.90
7512;DHT22;9999;48.780;9.146;2022-10-13T08:50:22;13.60;99.90
7512;DHT22;9999;48.780;9.146;2022-10-13T08:52:52;13.60;99.90
7512;DHT22;9999;48.780;9.146;2022-10-13T08:55:25;13.60;99.90
7512;DHT22;9999;48.780;9.146;2022-10-13T08:57:56;13.80;99.90
7512;DHT22;9999;48.780;9.146;2022-10-13T09:00:26;13.80;99.90
7512;DHT22;9999;48.780;9.146;2022-10-13T09:02:57;13.80;99.90
7512;DHT22;9999;48.780;9.146;2022-10-13T09:05:36;13.90;99.90
7512;DHT22;9999;48.780;9.146;2022-10-13T09:08:11;14.00;99.90
7512;DHT22;9999;48.780;9.146;2022-10-13T09:10:47;14.10;99.90
7512;DHT22;9999;48.780;9.146;2022-10-13T09:13:17;14.10;99.90
7512;DHT22;9999;48.780;9.146;2022-10-13T09:15:44;14.10;99.90
7512;DHT22;9999;48.780;9.146;2022-10-13T09:18:13;14.20;99.90
7512;DHT22;9999;48.780;9.146;2022-10-13T09:20:41;14.20;99.90
7512;DHT22;9999;48.780;9.146;2022-10-13T09:23:17;14.20;99.90
7512;DHT22;9999;48.780;9.146;2022-10-13T09:25:46;14.30;99.90
7512;DHT22;9999;48.780;9.146;2022-10-13T09:28:18;14.30;99.90
7512;DHT22;9999;48.780;9.146;2022-10-13T09:30:45;14.30;99.90
7512;DHT22;9999;48.780;9.146;2022-10-13T09:33:21;14.40;99.90
7512;DHT22;9999;48.780;9.146;2022-10-13T09:36:06;14.40;99.90
7512;DHT22;9999;48.780;9.146;2022-10-13T09:38:36;14.40;99.90
7512;DHT22;9999;48.780;9.146;2022-10-13T09:41:05;14.50;99.90
7512;DHT22;9999;48.780;9.146;2022-10-13T09:43:40;14.50;99.90
7512;DHT22;9999;48.780;9.146;2022-10-13T09:46:15;14.50;99.90
7512;DHT22;9999;48.780;9.146;2022-10-13T09:48:47;14.60;99.90
7512;DHT22;9999;48.780;9.146;2022-10-13T09:51:30;14.50;99.90
7512;DHT22;9999;48.780;9.146;2022-10-13T09:54:03;14.50;99.90
7512;DHT22;9999;48.780;9.146;2022-10-13T09:56:35;14.50;99.90
7512;DHT22;9999;48.780;9.146;2022-10-13T09:59:09;14.50;99.90
7512;DHT22;9999;48.780;9.146;2022-10-13T10:01:39;14.60;99.90
7512;DHT22;9999;48.780;9.146;2022-10-13T10:04:12;14.60;99.90
7512;DHT22;9999;48.780;9.146;2022-10-13T10:06:43;14.70;99.90
7512;DHT22;9999;48.780;9.146;2022-10-13T10:09:24;14.80;99.90
7512;DHT22;9999;48.780;9.146;2022-10-13T10:11:52;14.90;99.90
7512;DHT22;9999;48.780;9.146;2022-10-13T10:14:24;14.90;99.90
7512;DHT22;9999;48.780;9.146;2022-10-13T10:16:56;15.00;99.90
7512;DHT22;9999;48.780;9.146;2022-10-13T10:19:28;15.00;99.90
7512;DHT22;9999;48.780;9.146;2022-10-13T10:22:04;14.90;99.90
7512;DHT22;9999;48.780;9.146;2022-10-13T10:24:44;14.90;99.90
7512;DHT22;9999;48.780;9.146;2022-10-13T10:27:16;15.00;99.90
7512;DHT22;9999;48.780;9.146;2022-10-13T10:29:48;15.00;99.90
7512;DHT22;9999;48.780;9.146;2022-10-13T10:32:26;15.00;99.90
7512;DHT22;9999;48.780;9.146;2022-10-13T10:34:56;14.90;99.90
7512;DHT22;9999;48.780;9.146;2022-10-13T10:37:36;15.00;99.90
7512;DHT22;9999;48.780;9.146;2022-10-13T10:40:14;14.80;99.90
7512;DHT22;9999;48.780;9.146;2022-10-13T10:43:03;14.90;99.90
7512;DHT22;9999;48.780;9.146;2022-10-13T10:45:34;14.90;99.90
7512;DHT22;9999;48.780;9.146;2022-10-13T10:48:07;15.00;99.90
7512;DHT22;9999;48.780;9.146;2022-10-13T10:50:38;15.00;99.90
7512;DHT22;9999;48.780;9.146;2022-10-13T10:53:16;15.00;99.90
7512;DHT22;9999;48.780;9.146;2022-10-13T10:55:51;14.90;99.90
7512;DHT22;9999;48.780;9.146;2022-10-13T10:58:26;15.00;99.90
7512;DHT22;9999;48.780;9.146;2022-10-13T11:00:58;15.10;99.90
7512;DHT22;9999;48.780;9.146;2022-10-13T11:03:40;15.20;99.90
7512;DHT22;9999;48.780;9.146;2022-10-13T11:06:23;15.20;99.90
7512;DHT22;9999;48.780;9.146;2022-10-13T11:08:52;15.30;99.90
7512;DHT22;9999;48.780;9.146;2022-10-13T11:11:35;15.30;99.90
7512;DHT22;9999;48.780;9.146;2022-10-13T11:14:28;15.30;99.90
7512;DHT22;9999;48.780;9.146;2022-10-13T11:17:14;15.40;99.90
7512;DHT22;9999;48.780;9.146;2022-10-13T11:19:42;15.40;99.90
7512;DHT22;9999;48.780;9.146;2022-10-13T11:22:20;15.40;99.90
7512;DHT22;9999;48.780;9.146;2022-10-13T11:25:00;15.40;99.90
7512;DHT22;9999;48.780;9.146;2022-10-13T11:27:46;15.40;99.90
7512;DHT22;9999;48.780;9.146;2022-10-13T11:33:35;15.40;99.90
7512;DHT22;9999;48.780;9.146;2022-10-13T11:36:37;15.50;99.90
7512;DHT22;9999;48.780;9.146;2022-10-13T11:45:22;15.50;99.90
7512;DHT22;9999;48.780;9.146;2022-10-13T11:48:06;15.60;99.90
7512;DHT22;9999;48.780;9.146;2022-10-13T11:50:41;15.70;99.90
7512;DHT22;9999;48.780;9.146;2022-10-13T11:53:16;15.80;99.90
7512;DHT22;9999;48.780;9.146;2022-10-13T11:55:48;15.90;99.90
7512;DHT22;9999;48.780;9.146;2022-10-13T11:58:19;16.00;99.90
7512;DHT22;9999;48.780;9.146;2022-10-13T12:00:55;16.10;99.90
7512;DHT22;9999;48.780;9.146;2022-10-13T12:03:26;16.20;99.90
7512;DHT22;9999;48.780;9.146;2022-10-13T12:05:57;16.30;99.90
7512;DHT22;9999;48.780;9.146;2022-10-13T12:08:26;16.30;99.90
7512;DHT22;9999;48.780;9.146;2022-10-13T12:10:55;16.30;99.90
7512;DHT22;9999;48.780;9.146;2022-10-13T12:13:27;16.30;99.90
7512;DHT22;9999;48.780;9.146;2022-10-13T12:16:00;16.30;99.90
7512;DHT22;9999;48.780;9.146;2022-10-13T12:18:30;16.30;99.90
7512;DHT22;9999;48.780;9.146;2022-10-13T12:21:01;16.30;99.90
7512;DHT22;9999;48.780;9.146;2022-10-13T12:23:30;16.40;99.90
7512;DHT22;9999;48.780;9.146;2022-10-13T12:25:58;16.50;99.90
7512;DHT22;9999;48.780;9.146;2022-10-13T12:28:28;16.50;99.90
7512;DHT22;9999;48.780;9.146;2022-10-13T12:30:57;16.60;99.90
7512;DHT22;9999;48.780;9.146;2022-10-13T12:33:30;16.70;99.90
7512;DHT22;9999;48.780;9.146;2022-10-13T12:36:10;16.70;99.90
7512;DHT22;9999;48.780;9.146;2022-10-13T12:38:42;16.90;99.90
7512;DHT22;9999;48.780;9.146;2022-10-13T12:41:12;16.90;99.90
7512;DHT22;9999;48.780;9.146;2022-10-13T12:43:42;17.00;99.90
7512;DHT22;9999;48.780;9.146;2022-10-13T12:46:09;17.10;99.90
7512;DHT22;9999;48.780;9.146;2022-10-13T12:48:36;17.00;99.90
7512;DHT22;9999;48.780;9.146;2022-10-13T12:51:10;17.00;99.90
7512;DHT22;9999;48.780;9.146;2022-10-13T12:53:42;17.20;99.90
7512;DHT22;9999;48.780;9.146;2022-10-13T12:56:27;17.20;99.90
7512;DHT22;9999;48.780;9.146;2022-10-13T12:58:56;16.90;99.90
7512;DHT22;9999;48.780;9.146;2022-10-13T13:01:29;16.90;99.90
7512;DHT22;9999;48.780;9.146;2022-10-13T13:03:58;16.90;99.90
7512;DHT22;9999;48.780;9.146;2022-10-13T13:06:33;17.00;99.90
7512;DHT22;9999;48.780;9.146;2022-10-13T13:09:20;17.10;99.90
7512;DHT22;9999;48.780;9.146;2022-10-13T13:12:02;17.10;99.90
7512;DHT22;9999;48.780;9.146;2022-10-13T13:14:38;17.10;99.90
7512;DHT22;9999;48.780;9.146;2022-10-13T13:17:09;16.90;99.90
7512;DHT22;9999;48.780;9.146;2022-10-13T13:19:38;17.00;99.90
7512;DHT22;9999;48.780;9.146;2022-10-13T13:22:08;17.00;99.90
7512;DHT22;9999;48.780;9.146;2022-10-13T13:24:34;17.00;99.90
7512;DHT22;9999;48.780;9.146;2022-10-13T13:27:13;16.90;99.90
7512;DHT22;9999;48.780;9.146;2022-10-13T13:29:42;16.80;99.90
7512;DHT22;9999;48.780;9.146;2022-10-13T13:32:11;16.90;99.90
7512;DHT22;9999;48.780;9.146;2022-10-13T13:34:38;16.80;99.90
7512;DHT22;9999;48.780;9.146;2022-10-13T13:37:13;16.60;99.90
7512;DHT22;9999;48.780;9.146;2022-10-13T13:39:44;16.70;99.90
7512;DHT22;9999;48.780;9.146;2022-10-13T13:42:13;16.80;99.90
7512;DHT22;9999;48.780;9.146;2022-10-13T13:44:43;16.80;99.90
7512;DHT22;9999;48.780;9.146;2022-10-13T13:47:15;16.70;99.90
7512;DHT22;9999;48.780;9.146;2022-10-13T13:49:45;16.80;99.90
7512;DHT22;9999;48.780;9.146;2022-10-13T13:52:12;16.90;99.90
7512;DHT22;9999;48.780;9.146;2022-10-13T13:54:39;16.90;99.90
7512;DHT22;9999;48.780;9.146;2022-10-13T13:57:06;16.90;99.90
7512;DHT22;9999;48.780;9.146;2022-10-13T13:59:33;17.00;99.90
7512;DHT22;9999;48.780;9.146;2022-10-13T14:02:01;16.90;99.90
7512;DHT22;9999;48.780;9.146;2022-10-13T14:04:32;17.00;99.90
7512;DHT22;9999;48.780;9.146;2022-10-13T14:07:00;17.00;99.90
7512;DHT22;9999;48.780;9.146;2022-10-13T14:09:26;17.00;99.90
7512;DHT22;9999;48.780;9.146;2022-10-13T14:11:53;17.00;99.90
7512;DHT22;9999;48.780;9.146;2022-10-13T14:14:20;17.10;99.90
7512;DHT22;9999;48.780;9.146;2022-10-13T14:16:47;17.10;99.90
7512;DHT22;9999;48.780;9.146;2022-10-13T14:19:15;17.10;99.90
7512;DHT22;9999;48.780;9.146;2022-10-13T14:21:42;17.00;99.90
7512;DHT22;9999;48.780;9.146;2022-10-13T14:24:16;16.90;99.90
7512;DHT22;9999;48.780;9.146;2022-10-13T14:26:43;16.90;99.90
7512;DHT22;9999;48.780;9.146;2022-10-13T14:29:10;16.80;99.90
7512;DHT22;9999;48.780;9.146;2022-10-13T14:31:38;16.80;99.90
7512;DHT22;9999;48.780;9.146;2022-10-13T14:34:04;16.70;99.90
7512;DHT22;9999;48.780;9.146;2022-10-13T14:36:33;16.60;99.90
7512;DHT22;9999;48.780;9.146;2022-10-13T14:39:00;16.70;99.90
7512;DHT22;9999;48.780;9.146;2022-10-13T14:41:26;16.60;99.90
7512;DHT22;9999;48.780;9.146;2022-10-13T14:43:54;16.60;99.90
7512;DHT22;9999;48.780;9.146;2022-10-13T14:46:22;16.50;99.90
7512;DHT22;9999;48.780;9.146;2022-10-13T14:48:49;16.50;99.90
7512;DHT22;9999;48.780;9.146;2022-10-13T14:51:16;16.40;99.90
7512;DHT22;9999;48.780;9.146;2022-10-13T14:53:44;16.40;99.90
7512;DHT22;9999;48.780;9.146;2022-10-13T14:56:15;16.50;99.90
7512;DHT22;9999;48.780;9.146;2022-10-13T14:58:49;16.40;99.90
7512;DHT22;9999;48.780;9.146;2022-10-13T15:01:17;16.40;99.90
7512;DHT22;9999;48.780;9.146;2022-10-13T15:03:44;16.40;99.90
7512;DHT22;9999;48.780;9.146;2022-10-13T15:06:12;16.40;99.90
7512;DHT22;9999;48.780;9.146;2022-10-13T15:08:40;16.40;99.90
7512;DHT22;9999;48.780;9.146;2022-10-13T15:11:09;16.40;99.90
7512;DHT22;9999;48.780;9.146;2022-10-13T15:13:36;16.40;99.90
7512;DHT22;9999;48.780;9.146;2022-10-13T15:16:03;16.30;99.90
7512;DHT22;9999;48.780;9.146;2022-10-13T15:18:31;16.30;99.90
7512;DHT22;9999;48.780;9.146;2022-10-13T15:20:59;16.20;99.90
7512;DHT22;9999;48.780;9.146;2022-10-13T15:23:26;16.20;99.90
7512;DHT22;9999;48.780;9.146;2022-10-13T15:25:53;16.10;99.90
7512;DHT22;9999;48.780;9.146;2022-10-13T15:28:23;16.10;99.90
7512;DHT22;9999;48.780;9.146;2022-10-13T15:30:50;16.10;99.90
7512;DHT22;9999;48.780;9.146;2022-10-13T15:33:20;16.10;99.90
7512;DHT22;9999;48.780;9.146;2022-10-13T15:35:47;16.10;99.90
7512;DHT22;9999;48.780;9.146;2022-10-13T15:38:14;16.10;99.90
7512;DHT22;9999;48.780;9.146;2022-10-13T15:40:41;16.10;99.90
7512;DHT22;9999;48.780;9.146;2022-10-13T15:43:09;16.10;99.90
7512;DHT22;9999;48.780;9.146;2022-10-13T15:45:37;16.00;99.90
7512;DHT22;9999;48.780;9.146;2022-10-13T15:48:05;16.00;99.90
7512;DHT22;9999;48.780;9.146;2022-10-13T15:50:33;16.00;99.90
7512;DHT22;9999;48.780;9.146;2022-10-13T15:53:00;16.00;99.90
7512;DHT22;9999;48.780;9.146;2022-10-13T15:55:30;15.80;99.90
7512;DHT22;9999;48.780;9.146;2022-10-13T15:57:58;15.80;99.90
7512;DHT22;9999;48.780;9.146;2022-10-13T16:00:25;15.80;99.90
7512;DHT22;9999;48.780;9.146;2022-10-13T16:02:53;15.90;99.90
7512;DHT22;9999;48.780;9.146;2022-10-13T16:05:20;15.70;99.90
7512;DHT22;9999;48.780;9.146;2022-10-13T16:07:47;15.70;99.90
7512;DHT22;9999;48.780;9.146;2022-10-13T16:10:14;15.70;99.90
7512;DHT22;9999;48.780;9.146;2022-10-13T16:12:41;15.70;99.90
7512;DHT22;9999;48.780;9.146;2022-10-13T16:15:09;15.70;99.90
7512;DHT22;9999;48.780;9.146;2022-10-13T16:17:37;15.80;99.90
7512;DHT22;9999;48.780;9.146;2022-10-13T16:20:06;15.70;99.90
7512;DHT22;9999;48.780;9.146;2022-10-13T16:22:33;15.60;99.90
7512;DHT22;9999;48.780;9.146;2022-10-13T16:25:00;15.50;99.90
7512;DHT22;9999;48.780;9.146;2022-10-13T16:27:27;15.50;99.90
7512;DHT22;9999;48.780;9.146;2022-10-13T16:29:55;15.50;99.90